Home > Products > Valid Products > MTR

000
SAUS41 KBOX 281155
MTRMQE
METAR KMQE 281154Z AUTO 24009KT 21/17 A3009 RMK AO1 SLP195 T02110167
10211 20172 53013





000
SAUS41 KBOX 281055
MTRMQE
METAR KMQE 281054Z AUTO 24011KT 18/15 A3008 RMK AO1 SLP192 T01830150





000
SAUS41 KBOX 272355
MTRMQE
METAR KMQE 272354Z AUTO 19016KT 23/17 A3003 RMK AO1 SLP175 T02280167
10272 20206 56001





000
SAUS41 KBOX 272255
MTRMQE
METAR KMQE 272254Z AUTO 18014G20KT 25/17 A3003 RMK AO1 SLP175
T02500167





000
SAUS41 KBOX 272055
MTRMQE
METAR KMQE 272054Z AUTO 16006KT 26/17 A3003 RMK AO1 SLP176 T02610167
58014





000
SAUS41 KBOX 271655
MTRMQE
METAR KMQE 271654Z AUTO 07005KT 25/16 A3007 RMK AO1 SLP191 T02500156





000
SAUS41 KBOX 271355
MTRMQE
METAR KMQE 271354Z AUTO 00000KT 21/14 A3011 RMK AO1 SLP203 T02110144





000
SAUS41 KBOX 270855
MTRMQE
METAR KMQE 270854Z AUTO 18007KT 15/12 A3010 RMK AO1 SLP199 T01500122
53004





000
SAUS41 KBOX 270655
MTRMQE
METAR KMQE 270654Z AUTO 19009KT 16/12 A3009 RMK AO1 SLP196 T01610122





000
SAUS41 KBOX 261755
MTRMQE
METAR KMQE 261754Z AUTO 00000KT 29/14 A3006 RMK AO1 SLP184 T02940144
10306 20206 58013





000
SAUS41 KBOX 261255
MTRMQE
METAR KMQE 261254Z AUTO VRB04KT 23/14 A3012 RMK AO1 SLP205 T02280139





000
SAUS41 KBOX 261155
MTRMQE
METAR KMQE 261154Z AUTO 32007KT 21/13 A3011 RMK AO1 SLP201 T02060133
10206 20172 51016





000
SAUS41 KBOX 260655
MTRMQE
METAR KMQE 260654Z AUTO 30008KT 18/12 A3003 RMK AO1 SLP174 T01830117





000
SAUS41 KBOX 260555
MTRMQE
METAR KMQE 260554Z AUTO 31012KT 20/11 A3001 RMK AO1 SLP167 T02000111
10261 20194 51000





000
SAUS41 KBOX 252355
MTRMQE
METAR KMQE 252354Z AUTO 28015G20KT 26/08 A2998 RMK AO1 SLP160
T02610083 10300 20256 53007





000
SAUS41 KBOX 252255
MTRMQE
METAR KMQE 252254Z AUTO 27011KT 28/06 A2997 RMK AO1 SLP156 T02780061





    US Dept of Commerce
    National Oceanic and Atmospheric Administration
    National Weather Service
    1325 East West Highway
    Silver Spring, MD 20910
    Page Author: NWS Internet Services Team
Disclaimer
Information Quality
Credits
Glossary
Privacy Policy
Freedom of Information Act (FOIA)
About Us
Career Opportunities